createdAt,value
2022-11-08T00:00:18.138Z,3.05
2022-11-08T00:02:45.112Z,2.35
2022-11-08T00:05:30.838Z,2.33
2022-11-08T00:08:16.824Z,2.35
2022-11-08T00:11:02.899Z,3.53
2022-11-08T00:13:48.330Z,3.03
2022-11-08T00:16:15.231Z,2.22
2022-11-08T00:18:45.076Z,2.35
2022-11-08T00:21:11.900Z,2.33
2022-11-08T00:23:38.783Z,2.85
2022-11-08T00:26:05.789Z,2.30
2022-11-08T00:28:35.774Z,2.47
2022-11-08T00:31:06.920Z,2.40
2022-11-08T00:33:36.369Z,3.33
2022-11-08T00:36:03.965Z,2.42
2022-11-08T00:38:30.823Z,2.28
2022-11-08T00:41:00.883Z,3.10
2022-11-08T00:43:27.803Z,2.70
2022-11-08T00:45:54.691Z,2.78
2022-11-08T00:48:21.679Z,2.58
2022-11-08T00:50:48.634Z,2.25
2022-11-08T00:53:15.497Z,2.63
2022-11-08T00:55:42.522Z,2.92
2022-11-08T00:58:09.348Z,1.77
2022-11-08T01:00:37.917Z,2.50
2022-11-08T01:03:19.826Z,2.70
2022-11-08T01:05:47.944Z,2.63
2022-11-08T01:08:16.094Z,2.42
2022-11-08T01:10:45.145Z,2.28
2022-11-08T01:13:12.334Z,3.20
2022-11-08T01:15:41.794Z,2.63
2022-11-08T01:18:13.482Z,2.42
2022-11-08T01:20:41.961Z,2.88
2022-11-08T01:23:09.813Z,2.70
2022-11-08T01:25:41.799Z,2.15
2022-11-08T01:28:08.727Z,2.65
2022-11-08T01:30:39.762Z,2.65
2022-11-08T01:33:13.569Z,2.92
2022-11-08T01:35:41.341Z,2.60
2022-11-08T01:38:14.997Z,2.60
2022-11-08T01:40:50.867Z,2.67
2022-11-08T01:43:33.513Z,1.92
2022-11-08T01:46:19.213Z,3.25
2022-11-08T01:48:54.557Z,3.35
2022-11-08T01:51:31.808Z,2.38
2022-11-08T01:54:01.369Z,3.08
2022-11-08T01:56:32.121Z,1.70
2022-11-08T01:59:00.012Z,2.92
2022-11-08T02:01:27.081Z,2.65
2022-11-08T02:03:54.173Z,2.80
2022-11-08T02:06:21.176Z,2.33
2022-11-08T02:08:48.164Z,2.83
2022-11-08T02:11:16.574Z,2.22
2022-11-08T02:13:43.798Z,3.00
2022-11-08T02:16:15.765Z,2.47
2022-11-08T02:18:44.021Z,2.20
2022-11-08T02:21:23.052Z,2.25
2022-11-08T02:23:58.901Z,2.70
2022-11-08T02:26:29.224Z,1.85
2022-11-08T02:28:56.236Z,1.77
2022-11-08T02:31:32.179Z,2.20
2022-11-08T02:33:59.417Z,2.70
2022-11-08T02:36:26.480Z,2.38
2022-11-08T02:38:56.359Z,3.15
2022-11-08T02:41:23.341Z,2.60
2022-11-08T02:43:50.204Z,1.90
2022-11-08T02:46:17.061Z,2.53
2022-11-08T02:48:44.028Z,1.88
2022-11-08T02:51:10.965Z,2.90
2022-11-08T02:53:37.881Z,2.50
2022-11-08T02:56:05.028Z,1.80
2022-11-08T02:58:32.037Z,2.08
2022-11-08T03:00:59.065Z,2.30
2022-11-08T03:03:25.973Z,2.10
2022-11-08T03:05:52.861Z,2.38
2022-11-08T03:08:20.225Z,2.10
2022-11-08T03:10:47.485Z,1.90
2022-11-08T03:13:14.430Z,1.90
2022-11-08T03:15:41.457Z,2.20
2022-11-08T03:18:08.338Z,2.15
2022-11-08T03:20:35.229Z,2.20
2022-11-08T03:23:06.683Z,1.90
2022-11-08T03:25:34.255Z,2.38
2022-11-08T03:28:05.796Z,1.65
2022-11-08T03:30:33.235Z,2.25
2022-11-08T03:33:00.274Z,2.20
2022-11-08T03:35:27.191Z,2.45
2022-11-08T03:37:55.633Z,1.85
2022-11-08T03:40:23.228Z,1.75
2022-11-08T03:42:50.382Z,1.70
2022-11-08T03:45:17.414Z,2.20
2022-11-08T03:47:46.583Z,2.08
2022-11-08T03:50:14.965Z,2.08
2022-11-08T03:52:49.979Z,2.58
2022-11-08T03:55:17.926Z,2.20
2022-11-08T03:57:46.452Z,2.45
2022-11-08T04:00:15.677Z,1.92
2022-11-08T04:02:42.918Z,2.60
2022-11-08T04:05:11.315Z,2.00
2022-11-08T04:07:38.671Z,2.35
2022-11-08T04:10:07.147Z,3.22
2022-11-08T04:12:52.754Z,3.13
2022-11-08T04:15:22.767Z,3.95
2022-11-08T04:18:11.709Z,2.63
2022-11-08T04:21:02.541Z,2.40
2022-11-08T04:23:30.520Z,3.03
2022-11-08T04:25:59.790Z,2.97
2022-11-08T04:28:28.394Z,2.88
2022-11-08T04:31:00.830Z,2.17
2022-11-08T04:33:27.834Z,2.40
2022-11-08T04:35:54.836Z,2.25
2022-11-08T04:38:22.242Z,4.65
2022-11-08T04:40:49.088Z,3.42
2022-11-08T04:43:16.095Z,3.10
2022-11-08T04:45:43.154Z,2.50
2022-11-08T04:48:10.454Z,3.40
2022-11-08T04:50:37.383Z,2.25
2022-11-08T04:53:04.287Z,2.60
2022-11-08T04:55:31.154Z,2.03
2022-11-08T04:57:59.186Z,2.83
2022-11-08T05:00:26.902Z,2.42
2022-11-08T05:02:54.040Z,2.45
2022-11-08T05:05:21.291Z,2.28
2022-11-08T05:07:48.281Z,2.42
2022-11-08T05:10:15.243Z,2.38
2022-11-08T05:12:42.248Z,2.60
2022-11-08T05:15:09.743Z,2.65
2022-11-08T05:17:36.730Z,2.65
2022-11-08T05:20:23.881Z,2.90
2022-11-08T05:23:09.438Z,2.50
2022-11-08T05:25:40.310Z,2.58
2022-11-08T05:28:07.140Z,3.00
2022-11-08T05:30:33.995Z,3.00
2022-11-08T05:33:00.845Z,2.80
2022-11-08T05:35:27.825Z,3.30
2022-11-08T05:37:54.740Z,3.22
2022-11-08T05:40:21.875Z,2.50
2022-11-08T05:42:48.971Z,2.50
2022-11-08T05:45:16.105Z,2.67
2022-11-08T05:47:46.414Z,2.90
2022-11-08T05:50:19.246Z,2.65
2022-11-08T05:52:46.875Z,2.83
2022-11-08T05:55:13.815Z,2.70
2022-11-08T05:57:43.922Z,2.92
2022-11-08T06:00:12.303Z,2.17
2022-11-08T06:02:40.088Z,2.80
2022-11-08T06:05:08.278Z,3.03
2022-11-08T06:07:35.607Z,3.50
2022-11-08T06:10:02.862Z,2.70
2022-11-08T06:12:29.877Z,3.22
2022-11-08T06:14:57.077Z,4.18
2022-11-08T06:17:26.286Z,4.13
2022-11-08T06:19:56.274Z,3.50
2022-11-08T06:22:23.317Z,3.55
2022-11-08T06:24:50.257Z,3.20
2022-11-08T06:27:17.543Z,2.95
2022-11-08T06:29:44.561Z,3.58
2022-11-08T06:32:11.636Z,3.42
2022-11-08T06:34:38.659Z,2.95
2022-11-08T06:37:05.813Z,3.30
2022-11-08T06:39:32.840Z,3.28
2022-11-08T06:42:01.051Z,3.40
2022-11-08T06:44:27.962Z,3.47
2022-11-08T06:46:57.798Z,2.95
2022-11-08T06:49:24.720Z,2.92
2022-11-08T06:51:52.103Z,2.92
2022-11-08T06:54:23.283Z,3.22
2022-11-08T06:56:55.880Z,3.63
2022-11-08T06:59:23.410Z,3.50
2022-11-08T07:01:50.623Z,3.75
2022-11-08T07:04:17.804Z,4.10
2022-11-08T07:06:45.020Z,3.38
2022-11-08T07:09:11.936Z,3.60
2022-11-08T07:11:39.193Z,2.50
2022-11-08T07:14:06.152Z,2.63
2022-11-08T07:16:33.076Z,2.85
2022-11-08T07:18:59.962Z,2.40
2022-11-08T07:21:26.824Z,2.65
2022-11-08T07:23:53.705Z,2.80
2022-11-08T07:26:20.641Z,2.35
2022-11-08T07:28:47.530Z,2.45
2022-11-08T07:31:14.574Z,2.17
2022-11-08T07:33:41.509Z,2.30
2022-11-08T07:36:08.514Z,2.35
2022-11-08T07:38:35.538Z,2.50
2022-11-08T07:41:02.706Z,2.38
2022-11-08T07:43:30.405Z,2.20
2022-11-08T07:45:59.646Z,2.13
2022-11-08T07:48:28.242Z,1.98
2022-11-08T07:50:55.446Z,1.83
2022-11-08T07:53:22.782Z,1.70
2022-11-08T07:55:49.887Z,1.90
2022-11-08T07:58:17.233Z,1.77
2022-11-08T08:00:45.077Z,1.98
2022-11-08T08:03:14.056Z,1.42
2022-11-08T08:05:44.335Z,1.83
2022-11-08T08:08:12.904Z,1.20
2022-11-08T08:10:40.259Z,1.80
2022-11-08T08:13:07.256Z,1.33
2022-11-08T08:15:34.310Z,1.10
2022-11-08T08:18:02.432Z,1.55
2022-11-08T08:20:29.941Z,1.20
2022-11-08T08:22:56.939Z,1.10
2022-11-08T08:25:24.319Z,1.50
2022-11-08T08:27:53.240Z,1.05
2022-11-08T08:30:20.291Z,1.20
2022-11-08T08:33:02.158Z,0.95
2022-11-08T08:35:38.585Z,1.23
2022-11-08T08:38:06.665Z,0.93
2022-11-08T08:40:34.456Z,0.80
2022-11-08T08:43:03.541Z,0.93
2022-11-08T08:45:31.140Z,0.82
2022-11-08T08:47:58.587Z,0.88
2022-11-08T08:50:27.687Z,1.48
2022-11-08T08:53:01.012Z,1.42
2022-11-08T08:55:28.331Z,1.83
2022-11-08T08:57:55.893Z,1.13
2022-11-08T09:03:10.836Z,1.00
2022-11-08T09:05:41.822Z,0.90
2022-11-08T09:08:08.772Z,1.25
2022-11-08T09:10:35.915Z,0.95
2022-11-08T09:13:03.803Z,1.35
2022-11-08T09:15:32.369Z,1.20
2022-11-08T09:17:59.560Z,1.17
2022-11-08T09:20:26.618Z,1.40
2022-11-08T09:22:53.605Z,1.42
2022-11-08T09:25:20.442Z,1.40
2022-11-08T09:27:47.301Z,1.45
2022-11-08T09:30:14.331Z,1.75
2022-11-08T09:35:28.327Z,1.40
2022-11-08T09:37:55.270Z,1.23
2022-11-08T09:40:33.033Z,1.10
2022-11-08T09:43:31.579Z,1.13
2022-11-08T09:45:58.586Z,1.25
2022-11-08T09:48:35.101Z,1.30
2022-11-08T09:51:22.803Z,1.23
2022-11-08T09:54:03.771Z,1.65
2022-11-08T09:56:31.629Z,1.50
2022-11-08T09:59:13.670Z,1.70
2022-11-08T10:01:41.171Z,1.85
2022-11-08T10:04:22.279Z,1.35
2022-11-08T10:06:49.306Z,1.70
2022-11-08T10:09:25.439Z,1.35
2022-11-08T10:12:16.003Z,1.48
2022-11-08T10:14:54.547Z,1.58
2022-11-08T10:17:46.560Z,1.30
2022-11-08T10:20:16.498Z,1.55
2022-11-08T10:23:22.223Z,1.27
2022-11-08T10:26:05.456Z,1.42
2022-11-08T10:31:03.918Z,1.33
2022-11-08T10:34:04.045Z,1.05
2022-11-08T10:36:48.497Z,1.40
2022-11-08T10:39:25.304Z,1.33
2022-11-08T10:42:03.473Z,1.20
2022-11-08T10:44:30.507Z,1.38
2022-11-08T10:46:57.361Z,1.27
2022-11-08T10:49:27.113Z,1.50
2022-11-08T10:51:56.470Z,1.10
2022-11-08T10:54:49.671Z,1.27
2022-11-08T10:57:42.935Z,1.15
2022-11-08T11:00:22.171Z,1.20
2022-11-08T11:03:01.593Z,1.17
2022-11-08T11:05:35.419Z,1.00
2022-11-08T11:08:09.329Z,1.45
2022-11-08T11:10:38.489Z,1.30
2022-11-08T11:13:17.991Z,1.70
2022-11-08T11:15:51.009Z,1.23
2022-11-08T11:21:12.946Z,1.30
2022-11-08T11:23:48.310Z,1.50
2022-11-08T11:26:34.437Z,1.25
2022-11-08T11:29:07.150Z,1.70
2022-11-08T11:31:39.032Z,1.17
2022-11-08T11:34:18.009Z,1.40
2022-11-08T11:36:56.723Z,1.48
2022-11-08T11:39:29.767Z,1.80
2022-11-08T11:44:50.902Z,1.10
2022-11-08T11:47:34.023Z,1.02
2022-11-08T11:50:21.192Z,1.50
2022-11-08T11:52:48.414Z,1.75
2022-11-08T11:55:16.559Z,1.40
2022-11-08T11:58:14.174Z,1.42
2022-11-08T12:00:44.565Z,1.40
2022-11-08T12:03:34.595Z,1.20
2022-11-08T12:06:42.919Z,1.85
2022-11-08T12:09:31.395Z,1.23
2022-11-08T12:12:26.210Z,1.27
2022-11-08T12:14:55.955Z,1.60
2022-11-08T12:17:37.506Z,1.38
2022-11-08T12:20:39.983Z,1.27
2022-11-08T12:23:11.833Z,1.20
2022-11-08T12:26:07.457Z,1.50
2022-11-08T12:28:58.837Z,1.38
2022-11-08T12:31:30.716Z,1.60
2022-11-08T12:34:23.495Z,1.42
2022-11-08T12:37:12.044Z,1.48
2022-11-08T12:39:47.132Z,1.17
2022-11-08T12:42:42.091Z,1.45
2022-11-08T12:45:33.717Z,1.48
2022-11-08T12:48:09.498Z,1.48
2022-11-08T12:51:03.313Z,1.40
2022-11-08T12:53:53.147Z,1.33
2022-11-08T12:56:24.788Z,1.35
2022-11-08T12:58:52.788Z,1.85
2022-11-08T13:01:21.499Z,1.30
2022-11-08T13:04:19.168Z,1.30
2022-11-08T13:06:57.524Z,1.10
2022-11-08T13:09:45.025Z,1.60
2022-11-08T13:12:33.397Z,1.70
2022-11-08T13:15:01.655Z,1.92
2022-11-08T13:17:29.975Z,1.38
2022-11-08T13:20:05.146Z,1.40
2022-11-08T13:22:32.426Z,1.75
2022-11-08T13:25:03.941Z,1.88
2022-11-08T13:27:34.365Z,1.52
2022-11-08T13:30:24.166Z,1.55
2022-11-08T13:32:54.105Z,1.45
2022-11-08T13:35:42.846Z,1.40
2022-11-08T13:38:27.461Z,1.75
2022-11-08T13:41:14.778Z,2.08
2022-11-08T13:43:41.673Z,1.70
2022-11-08T13:46:20.673Z,1.80
2022-11-08T13:49:19.027Z,1.15
2022-11-08T13:51:46.865Z,1.73
2022-11-08T13:54:22.679Z,1.13
2022-11-08T13:56:56.182Z,1.23
2022-11-08T13:59:32.317Z,1.35
2022-11-08T14:01:59.645Z,1.92
2022-11-08T14:04:40.281Z,1.92
2022-11-08T14:07:27.987Z,1.75
2022-11-08T14:10:15.656Z,2.03
2022-11-08T14:13:10.583Z,2.00
2022-11-08T14:16:02.100Z,1.42
2022-11-08T14:18:34.189Z,1.52
2022-11-08T14:21:03.117Z,1.57
2022-11-08T14:23:39.554Z,2.08
2022-11-08T14:26:15.800Z,1.48
2022-11-08T14:28:44.766Z,1.65
2022-11-08T14:31:25.552Z,2.05
2022-11-08T14:33:52.646Z,1.60
2022-11-08T14:36:21.833Z,2.00
2022-11-08T14:39:16.575Z,1.60
2022-11-08T14:41:48.126Z,2.03
2022-11-08T14:44:16.691Z,1.35
2022-11-08T14:46:43.597Z,2.42
2022-11-08T14:49:10.484Z,1.02
2022-11-08T14:51:37.461Z,1.33
2022-11-08T14:54:04.324Z,1.23
2022-11-08T14:56:38.527Z,1.73
2022-11-08T14:59:06.947Z,1.38
2022-11-08T15:01:35.533Z,1.40
2022-11-08T15:04:12.200Z,1.75
2022-11-08T15:07:05.442Z,1.75
2022-11-08T15:09:33.991Z,1.85
2022-11-08T15:12:03.616Z,1.52
2022-11-08T15:14:33.607Z,1.45
2022-11-08T15:17:03.366Z,1.83
2022-11-08T15:20:04.401Z,1.83
2022-11-08T15:22:36.259Z,2.00
2022-11-08T15:25:17.307Z,1.65
2022-11-08T15:27:54.734Z,2.00
2022-11-08T15:30:22.904Z,1.60
2022-11-08T15:32:50.485Z,1.83
2022-11-08T15:35:27.109Z,2.33
2022-11-08T15:38:03.553Z,1.90
2022-11-08T15:40:35.848Z,1.65
2022-11-08T15:43:03.436Z,1.75
2022-11-08T15:45:33.167Z,1.55
2022-11-08T15:48:09.071Z,1.73
2022-11-08T15:50:36.571Z,1.45
2022-11-08T15:53:04.553Z,1.55
2022-11-08T15:56:01.394Z,1.60
2022-11-08T15:58:30.271Z,2.22
2022-11-08T16:00:58.443Z,1.38
2022-11-08T16:03:25.553Z,2.05
2022-11-08T16:05:52.648Z,1.48
2022-11-08T16:08:20.967Z,1.80
2022-11-08T16:10:54.940Z,1.50
2022-11-08T16:13:34.945Z,1.63
2022-11-08T16:16:02.280Z,1.60
2022-11-08T16:18:32.391Z,1.50
2022-11-08T16:20:59.266Z,1.88
2022-11-08T16:23:26.243Z,1.63
2022-11-08T16:25:56.031Z,1.95
2022-11-08T16:28:38.114Z,1.60
2022-11-08T16:31:13.883Z,1.77
2022-11-08T16:33:42.012Z,1.88
2022-11-08T16:36:19.040Z,1.63
2022-11-08T16:39:04.306Z,1.95
2022-11-08T16:41:31.183Z,2.75
2022-11-08T16:43:59.932Z,5.07
2022-11-08T16:46:26.811Z,5.03
2022-11-08T16:48:56.234Z,4.22
2022-11-08T16:51:25.407Z,3.90
2022-11-08T16:53:52.750Z,1.45
2022-11-08T16:56:19.802Z,2.17
2022-11-08T16:58:46.681Z,2.20
2022-11-08T17:01:21.037Z,2.75
2022-11-08T17:03:47.931Z,3.08
2022-11-08T17:06:18.233Z,2.05
2022-11-08T17:08:46.210Z,1.95
2022-11-08T17:11:18.524Z,1.73
2022-11-08T17:13:45.801Z,2.00
2022-11-08T17:16:13.561Z,1.70
2022-11-08T17:18:41.250Z,2.20
2022-11-08T17:21:37.709Z,1.92
2022-11-08T17:23:56.097Z,1.38
2022-11-08T17:26:22.993Z,1.65
2022-11-08T17:28:50.001Z,1.90
2022-11-08T17:31:21.876Z,1.83
2022-11-08T17:33:48.735Z,2.13
2022-11-08T17:36:15.620Z,1.58
2022-11-08T17:38:43.042Z,1.77
2022-11-08T17:41:12.323Z,2.15
2022-11-08T17:43:39.591Z,1.73
2022-11-08T17:46:06.596Z,1.65
2022-11-08T17:48:34.039Z,1.70
2022-11-08T17:51:01.253Z,2.20
2022-11-08T17:53:28.778Z,3.58
2022-11-08T17:56:01.060Z,2.72
2022-11-08T17:58:28.234Z,1.80
2022-11-08T18:00:57.181Z,1.92
2022-11-08T18:03:25.738Z,1.80
2022-11-08T18:06:00.686Z,2.55
2022-11-08T18:08:29.462Z,1.70
2022-11-08T18:10:57.150Z,2.60
2022-11-08T18:13:25.415Z,2.25
2022-11-08T18:15:52.495Z,1.90
2022-11-08T18:18:19.752Z,2.42
2022-11-08T18:20:53.804Z,2.25
2022-11-08T18:23:21.207Z,2.05
2022-11-08T18:25:50.011Z,2.00
2022-11-08T18:28:17.203Z,1.90
2022-11-08T18:30:47.715Z,1.88
2022-11-08T18:33:17.048Z,1.92
2022-11-08T18:35:44.563Z,1.73
2022-11-08T18:38:14.986Z,2.38
2022-11-08T18:40:44.812Z,2.10
2022-11-08T18:43:12.053Z,2.50
2022-11-08T18:45:38.963Z,2.58
2022-11-08T18:48:06.280Z,1.73
2022-11-08T18:50:33.376Z,1.73
2022-11-08T18:53:04.007Z,2.08
2022-11-08T18:55:31.845Z,2.60
2022-11-08T18:58:01.007Z,1.67
2022-11-08T19:00:27.901Z,1.60
2022-11-08T19:02:55.338Z,1.85
2022-11-08T19:05:22.196Z,1.63
2022-11-08T19:07:49.087Z,2.38
2022-11-08T19:10:15.989Z,1.95
2022-11-08T19:12:42.879Z,1.60
2022-11-08T19:15:10.121Z,2.03
2022-11-08T19:17:37.364Z,1.80
2022-11-08T19:20:04.913Z,1.83
2022-11-08T19:22:32.142Z,1.90
2022-11-08T19:24:59.044Z,2.15
2022-11-08T19:27:25.946Z,1.67
2022-11-08T19:29:52.798Z,1.85
2022-11-08T19:32:19.831Z,1.80
2022-11-08T19:34:47.190Z,2.05
2022-11-08T19:37:14.123Z,1.40
2022-11-08T19:39:41.053Z,2.08
2022-11-08T19:42:07.885Z,1.90
2022-11-08T19:44:34.816Z,1.92
2022-11-08T19:47:01.981Z,1.40
2022-11-08T19:49:28.885Z,1.50
2022-11-08T19:51:55.753Z,2.08
2022-11-08T19:54:22.673Z,1.67
2022-11-08T19:57:06.165Z,1.83
2022-11-08T19:59:33.779Z,1.88
2022-11-08T20:02:00.745Z,1.90
2022-11-08T20:04:27.805Z,1.70
2022-11-08T20:06:54.762Z,1.88
2022-11-08T20:09:24.777Z,1.70
2022-11-08T20:11:55.475Z,2.03
2022-11-08T20:14:22.393Z,2.58
2022-11-08T20:16:53.190Z,2.05
2022-11-08T20:19:20.701Z,1.98
2022-11-08T20:21:47.596Z,1.63
2022-11-08T20:24:15.625Z,1.95
2022-11-08T20:26:43.562Z,1.45
2022-11-08T20:29:10.982Z,1.70
2022-11-08T20:31:38.728Z,1.70
2022-11-08T20:34:09.891Z,1.83
2022-11-08T20:36:37.877Z,1.80
2022-11-08T20:39:07.711Z,2.40
2022-11-08T20:41:37.297Z,1.52
2022-11-08T20:44:05.537Z,2.30
2022-11-08T20:46:33.261Z,1.40
2022-11-08T20:49:00.998Z,1.60
2022-11-08T20:51:29.961Z,1.38
2022-11-08T20:54:00.258Z,1.73
2022-11-08T20:56:27.737Z,1.77
2022-11-08T20:58:54.773Z,1.95
2022-11-08T21:01:23.592Z,1.70
2022-11-08T21:03:52.610Z,2.38
2022-11-08T21:06:24.077Z,2.60
2022-11-08T21:09:01.935Z,1.73
2022-11-08T21:11:34.564Z,1.92
2022-11-08T21:14:14.105Z,2.25
2022-11-08T21:17:07.175Z,3.30
2022-11-08T21:19:30.618Z,3.03
2022-11-08T21:22:18.508Z,1.70
2022-11-08T21:24:52.841Z,2.10
2022-11-08T21:27:19.927Z,2.97
2022-11-08T21:29:46.856Z,1.83
2022-11-08T21:32:17.199Z,2.33
2022-11-08T21:34:46.504Z,1.90
2022-11-08T21:37:13.842Z,1.92
2022-11-08T21:39:40.777Z,2.10
2022-11-08T21:42:07.674Z,2.38
2022-11-08T21:44:34.580Z,2.20
2022-11-08T21:47:01.446Z,2.05
2022-11-08T21:49:28.326Z,1.90
2022-11-08T21:52:00.809Z,1.77
2022-11-08T21:54:27.660Z,2.00
2022-11-08T21:56:54.699Z,2.53
2022-11-08T21:59:21.579Z,1.85
2022-11-08T22:01:48.458Z,2.47
2022-11-08T22:04:15.360Z,3.90
2022-11-08T22:06:46.538Z,8.57
2022-11-08T22:09:14.556Z,2.72
2022-11-08T22:11:46.559Z,4.78
2022-11-08T22:14:13.556Z,1.85
2022-11-08T22:18:14.868Z,2.30
2022-11-08T22:21:55.344Z,1.73
2022-11-08T22:24:22.924Z,3.83
2022-11-08T22:26:53.078Z,3.38
2022-11-08T22:29:22.820Z,1.67
2022-11-08T22:31:50.042Z,2.13
2022-11-08T22:34:16.996Z,2.10
2022-11-08T22:36:46.144Z,3.53
2022-11-08T22:39:18.723Z,2.90
2022-11-08T22:41:46.972Z,3.08
2022-11-08T22:44:14.173Z,1.80
2022-11-08T22:46:42.249Z,1.50
2022-11-08T22:49:09.985Z,1.92
2022-11-08T22:51:37.196Z,2.63
2022-11-08T22:54:04.361Z,2.20
2022-11-08T22:56:36.468Z,1.75
2022-11-08T22:59:04.030Z,1.45
2022-11-08T23:01:31.062Z,1.55
2022-11-08T23:04:17.457Z,1.20
2022-11-08T23:06:44.787Z,1.20
2022-11-08T23:09:11.701Z,1.50
2022-11-08T23:11:57.447Z,1.02
2022-11-08T23:14:54.503Z,1.30
2022-11-08T23:17:56.000Z,1.10
2022-11-08T23:21:09.882Z,1.05
2022-11-08T23:26:54.957Z,1.15
2022-11-08T23:29:46.786Z,1.30
2022-11-08T23:32:14.038Z,1.20
2022-11-08T23:34:48.572Z,1.35
2022-11-08T23:37:24.417Z,1.48
2022-11-08T23:40:10.008Z,1.30
2022-11-08T23:42:55.352Z,1.33
2022-11-08T23:45:24.445Z,1.42
2022-11-08T23:48:08.454Z,1.65
2022-11-08T23:50:35.271Z,1.10
2022-11-08T23:53:23.125Z,1.10
2022-11-08T23:56:14.226Z,1.55
2022-11-08T23:58:41.346Z,1.58
